Time;durP1;ratioP1;P1;durP2;ratioP2;P2;SDS_P1;SDS_P2;PMS_P1;PMS_P2;Temp;Humidity;BMP_temperature;BMP_pressure;BME280_temperature;BME280_humidity;BME280_pressure;Samples;Min_cycle;Max_cycle;Signal;HPM_P1;HPM_P2
2022/10/13 00:00:41;;;;;;;17.13;10.20;;;;;;;12.28;82.32;101960.28;5038403;28;21331;-69
2022/10/13 00:03:07;;;;;;;20.02;10.75;;;;;;;12.28;82.04;101953.44;5037579;28;20029;-68
2022/10/13 00:05:33;;;;;;;18.02;10.95;;;;;;;12.26;82.56;101961.94;5036312;28;20047;-68
2022/10/13 00:07:59;;;;;;;15.65;10.65;;;;;;;12.25;82.81;101953.31;5039135;28;20025;-69
2022/10/13 00:10:24;;;;;;;19.65;10.52;;;;;;;12.29;82.77;101951.72;5038434;28;20030;-69
2022/10/13 00:12:50;;;;;;;22.33;11.23;;;;;;;12.27;82.82;101945.66;5036694;28;20035;-68
2022/10/13 00:15:15;;;;;;;20.50;10.63;;;;;;;12.30;82.79;101944.03;5038066;28;20052;-68
2022/10/13 00:17:41;;;;;;;20.58;10.60;;;;;;;12.31;82.73;101934.59;5036934;28;20026;-69
2022/10/13 00:20:08;;;;;;;20.15;10.90;;;;;;;12.32;82.76;101939.84;5034269;28;20532;-69
2022/10/13 00:22:34;;;;;;;18.67;10.35;;;;;;;12.32;82.90;101934.69;5035757;28;20037;-68
2022/10/13 00:24:59;;;;;;;17.02;10.48;;;;;;;12.32;82.97;101942.44;5036502;28;20091;-68
2022/10/13 00:27:25;;;;;;;19.60;10.13;;;;;;;12.29;83.13;101926.81;5032385;28;20029;-69
2022/10/13 00:29:50;;;;;;;19.33;10.90;;;;;;;12.33;83.17;101926.13;5017373;28;20479;-68
2022/10/13 00:32:16;;;;;;;23.42;10.93;;;;;;;12.35;83.06;101932.22;5036712;28;20029;-68
2022/10/13 00:34:42;;;;;;;17.85;11.00;;;;;;;12.35;83.45;101932.22;4998412;28;20021;-69
2022/10/13 00:37:07;;;;;;;21.35;11.05;;;;;;;12.34;83.46;101925.31;5013626;28;20458;-69
2022/10/13 00:39:33;;;;;;;18.35;10.85;;;;;;;12.35;83.49;101926.19;5036288;28;20040;-69
2022/10/13 00:41:59;;;;;;;20.80;10.57;;;;;;;12.35;83.82;101929.63;5036798;28;20037;-69
2022/10/13 00:45:03;;;;;;;18.75;10.32;;;;;;;12.41;82.99;101931.56;5039637;28;20479;-68
2022/10/13 00:47:50;;;;;;;20.70;10.23;;;;;;;12.43;82.75;101937.66;5037013;28;20041;-68
2022/10/13 00:50:20;;;;;;;21.73;10.57;;;;;;;12.40;83.52;101934.97;5035598;28;20028;-68
2022/10/13 00:52:48;;;;;;;21.35;10.98;;;;;;;12.40;83.57;101928.94;5015209;28;20154;-69
2022/10/13 00:55:19;;;;;;;19.38;10.80;;;;;;;12.41;83.59;101928.09;5035089;28;20031;-68
2022/10/13 00:57:47;;;;;;;21.85;11.25;;;;;;;12.39;83.70;101927.19;5034758;28;20040;-69
2022/10/13 01:00:13;;;;;;;18.70;10.45;;;;;;;12.35;83.80;101918.44;5037540;28;20039;-68
2022/10/13 01:02:38;;;;;;;16.95;10.25;;;;;;;12.36;83.86;101925.34;5041131;28;20396;-68
2022/10/13 01:05:05;;;;;;;23.20;10.15;;;;;;;12.39;83.95;101927.19;5036374;28;20029;-69
2022/10/13 01:07:32;;;;;;;21.77;10.68;;;;;;;12.37;83.99;101927.09;5035780;28;20037;-69
2022/10/13 01:10:00;;;;;;;18.88;10.23;;;;;;;12.39;83.75;101924.59;5030722;28;20049;-69
2022/10/13 01:12:51;;;;;;;21.77;10.07;;;;;;;12.42;83.50;101925.56;5040083;28;20040;-69
2022/10/13 01:15:39;;;;;;;21.38;10.23;;;;;;;12.45;83.46;101924.84;5037400;28;20503;-68
2022/10/13 01:18:24;;;;;;;19.90;10.23;;;;;;;12.45;83.35;101930.88;5035492;28;20030;-68
2022/10/13 01:21:10;;;;;;;25.38;10.40;;;;;;;12.42;83.37;101919.53;5038945;28;20053;-68
2022/10/13 01:23:57;;;;;;;17.73;10.23;;;;;;;12.44;83.51;101921.38;5019639;28;20057;-69
2022/10/13 01:26:55;;;;;;;19.80;10.00;;;;;;;12.44;83.51;101921.38;5035237;28;20488;-69
2022/10/13 01:29:55;;;;;;;21.15;9.77;;;;;;;12.46;83.28;101924.00;5033916;28;20052;-69
2022/10/13 01:32:42;;;;;;;19.45;10.50;;;;;;;12.46;82.81;101922.31;5036136;28;20029;-68
2022/10/13 01:35:13;;;;;;;20.65;10.10;;;;;;;12.43;83.69;101922.16;5034671;28;20036;-67
2022/10/13 01:38:04;;;;;;;17.85;9.88;;;;;;;12.47;83.42;101921.47;5034621;28;20025;-68
2022/10/13 01:41:08;;;;;;;19.58;10.00;;;;;;;12.50;83.23;101919.03;5015063;28;20078;-67
2022/10/13 01:44:01;;;;;;;18.88;10.23;;;;;;;12.48;83.72;101919.78;5015400;28;20062;-68
2022/10/13 01:46:34;;;;;;;23.48;10.75;;;;;;;12.45;83.80;101919.69;5041742;28;20211;-68
2022/10/13 01:49:06;;;;;;;17.33;10.45;;;;;;;12.46;83.88;101918.84;5031880;28;20104;-68
2022/10/13 01:51:32;;;;;;;21.33;10.70;;;;;;;12.45;84.08;101914.50;5032170;28;20025;-68
2022/10/13 01:53:58;;;;;;;19.08;10.40;;;;;;;12.46;83.80;101911.97;5035717;28;20033;-68
2022/10/13 01:56:23;;;;;;;19.27;10.32;;;;;;;12.46;84.13;101908.53;5016006;28;20033;-68
2022/10/13 01:58:51;;;;;;;20.05;10.18;;;;;;;12.49;83.95;101908.63;5031857;28;20036;-68
2022/10/13 02:01:45;;;;;;;21.40;10.05;;;;;;;12.53;83.63;101897.59;5035246;28;20029;-68
2022/10/13 02:04:16;;;;;;;22.15;10.75;;;;;;;12.49;84.14;101901.75;5036734;28;20033;-68
2022/10/13 02:07:16;;;;;;;20.83;10.80;;;;;;;12.51;83.92;101892.41;5036097;28;20075;-68
2022/10/13 02:09:57;;;;;;;18.48;10.00;;;;;;;12.53;83.94;101892.44;5035816;28;20056;-68
2022/10/13 02:12:29;;;;;;;21.08;10.45;;;;;;;12.52;84.54;101890.69;5033928;28;20037;-68
2022/10/13 02:14:57;;;;;;;18.67;9.88;;;;;;;12.51;84.40;101883.78;5037641;28;20044;-68
2022/10/13 02:17:25;;;;;;;20.55;10.23;;;;;;;12.49;84.27;101886.28;5038936;28;20037;-68
2022/10/13 02:19:52;;;;;;;18.53;10.63;;;;;;;12.52;84.28;101881.25;5036631;28;20028;-68
2022/10/13 02:22:19;;;;;;;23.45;11.05;;;;;;;12.52;84.51;101889.00;5035265;28;20075;-68
2022/10/13 02:24:45;;;;;;;20.38;10.27;;;;;;;12.53;84.46;101874.38;5032068;28;20777;-68
2022/10/13 02:27:11;;;;;;;19.23;10.82;;;;;;;12.53;84.36;101874.38;5041849;28;20021;-68
2022/10/13 02:29:54;;;;;;;19.80;10.48;;;;;;;12.60;84.08;101874.66;5040014;28;20044;-68
2022/10/13 02:32:21;;;;;;;22.38;10.48;;;;;;;12.55;84.33;101875.31;5023183;28;20026;-68
2022/10/13 02:34:46;;;;;;;22.10;11.07;;;;;;;12.55;84.53;101872.72;5038549;28;20410;-68
2022/10/13 02:37:11;;;;;;;24.00;10.90;;;;;;;12.52;84.53;101860.63;5033900;28;20033;-68
2022/10/13 02:39:37;;;;;;;21.63;10.48;;;;;;;12.53;84.82;101864.06;5040699;28;20033;-67
2022/10/13 02:42:03;;;;;;;21.77;11.13;;;;;;;12.51;84.91;101863.16;5041070;28;20033;-68
2022/10/13 02:44:28;;;;;;;19.50;10.65;;;;;;;12.55;84.69;101863.28;5037524;28;20033;-68
2022/10/13 02:46:53;;;;;;;17.27;10.35;;;;;;;12.53;84.49;101866.66;5037926;28;20021;-68
2022/10/13 02:49:19;;;;;;;19.52;10.13;;;;;;;12.54;84.85;101863.25;5034924;28;20029;-68
2022/10/13 02:51:44;;;;;;;18.10;10.05;;;;;;;12.53;84.56;101858.91;5038488;28;20027;-68
2022/10/13 02:54:09;;;;;;;16.05;9.73;;;;;;;12.53;84.79;101857.22;5041914;28;20024;-68
2022/10/13 02:56:35;;;;;;;23.02;10.48;;;;;;;12.52;84.93;101854.56;5018715;28;20033;-68
2022/10/13 02:59:00;;;;;;;20.10;10.18;;;;;;;12.52;85.20;101849.41;5037105;28;20018;-68
2022/10/13 03:01:26;;;;;;;19.75;10.50;;;;;;;12.56;85.15;101853.88;5038962;28;20415;-68
2022/10/13 03:03:51;;;;;;;16.63;9.85;;;;;;;12.56;85.11;101848.72;5041847;28;20073;-68
2022/10/13 03:06:16;;;;;;;19.80;10.55;;;;;;;12.52;85.38;101846.84;5041570;28;20387;-68
2022/10/13 03:08:42;;;;;;;22.52;9.50;;;;;;;12.52;85.27;101850.28;5039175;28;20448;-68
2022/10/13 03:11:07;;;;;;;18.45;10.23;;;;;;;12.54;85.35;101851.22;5015421;28;20025;-68
2022/10/13 03:13:33;;;;;;;18.42;10.25;;;;;;;12.55;85.33;101845.22;5036144;28;20029;-68
2022/10/13 03:15:58;;;;;;;19.23;9.73;;;;;;;12.53;85.53;101844.31;5004313;28;20451;-68
2022/10/13 03:18:23;;;;;;;16.48;9.95;;;;;;;12.55;85.37;101846.94;5031477;28;20045;-68
2022/10/13 03:21:05;;;;;;;22.08;10.32;;;;;;;12.59;85.32;101846.22;5020050;28;20025;-67
2022/10/13 03:23:31;;;;;;;20.17;10.30;;;;;;;12.52;85.40;101837.41;5038921;28;20052;-68
2022/10/13 03:25:57;;;;;;;13.85;9.82;;;;;;;12.53;85.30;101835.69;5042459;28;20056;-68
2022/10/13 03:28:23;;;;;;;17.92;9.48;;;;;;;12.57;85.12;101843.59;5037137;28;20506;-67
2022/10/13 03:30:48;;;;;;;17.83;9.93;;;;;;;12.55;85.51;101840.06;5038393;28;21019;-68
2022/10/13 03:33:14;;;;;;;17.13;9.60;;;;;;;12.56;85.50;101841.84;5037519;28;20033;-68
2022/10/13 03:35:39;;;;;;;15.40;8.98;;;;;;;12.57;85.57;101847.88;5039691;28;20029;-68
2022/10/13 03:38:04;;;;;;;18.30;9.70;;;;;;;12.56;85.51;101834.09;5035881;28;20029;-68
2022/10/13 03:40:30;;;;;;;19.77;9.68;;;;;;;12.57;85.45;101822.09;5039199;28;20488;-68
2022/10/13 03:42:55;;;;;;;19.67;9.55;;;;;;;12.58;85.71;101829.00;5037909;28;20100;-68
2022/10/13 03:45:21;;;;;;;17.05;9.52;;;;;;;12.57;85.44;101822.97;5033989;28;20029;-68
2022/10/13 03:47:46;;;;;;;15.95;8.95;;;;;;;12.58;85.66;101823.84;5029680;28;20120;-68
2022/10/13 03:50:11;;;;;;;17.58;9.15;;;;;;;12.59;85.25;101825.59;5041444;28;20380;-68
2022/10/13 03:52:37;;;;;;;16.02;9.30;;;;;;;12.59;85.73;101820.44;5036818;28;20090;-67
2022/10/13 03:55:03;;;;;;;20.52;9.40;;;;;;;12.56;85.42;101810.00;5030645;28;20175;-68
2022/10/13 03:57:29;;;;;;;17.00;9.43;;;;;;;12.58;85.64;101816.09;5037457;28;20049;-67
2022/10/13 03:59:56;;;;;;;16.95;9.02;;;;;;;12.61;85.25;101803.28;5039622;28;20031;-67
2022/10/13 04:02:22;;;;;;;17.98;9.23;;;;;;;12.59;85.67;101810.09;5039690;28;20025;-68
2022/10/13 04:04:47;;;;;;;14.02;8.95;;;;;;;12.60;85.63;101810.16;5035502;28;20033;-68
2022/10/13 04:07:13;;;;;;;15.23;8.82;;;;;;;12.59;85.78;101810.09;5039257;28;20068;-68
2022/10/13 04:09:39;;;;;;;17.00;9.40;;;;;;;12.62;85.34;101799.91;5033152;28;20400;-68
2022/10/13 04:12:04;;;;;;;17.67;8.93;;;;;;;12.61;85.56;101791.25;5035716;28;20035;-68
2022/10/13 04:14:30;;;;;;;17.58;9.60;;;;;;;12.57;85.98;101784.25;5031634;28;20032;-68
2022/10/13 04:16:55;;;;;;;17.67;9.15;;;;;;;12.61;85.75;101798.13;5033581;28;20082;-68
2022/10/13 04:19:20;;;;;;;16.38;9.02;;;;;;;12.61;85.95;101796.41;5037582;28;20590;-68
2022/10/13 04:21:46;;;;;;;17.73;9.25;;;;;;;12.62;86.08;101802.50;5039269;28;20037;-68
2022/10/13 04:24:12;;;;;;;19.40;9.80;;;;;;;12.63;86.16;101800.78;5036320;28;20044;-68
2022/10/13 04:26:38;;;;;;;17.58;9.00;;;;;;;12.63;86.21;101796.50;5034761;28;20403;-68
2022/10/13 04:29:05;;;;;;;14.35;9.07;;;;;;;12.65;86.50;101799.13;5035795;28;20016;-68
2022/10/13 04:31:30;;;;;;;19.35;9.55;;;;;;;12.63;86.92;101790.47;5035798;28;20033;-67
2022/10/13 04:33:56;;;;;;;17.10;9.10;;;;;;;12.64;87.23;101787.06;5040579;28;20103;-68
2022/10/13 04:36:22;;;;;;;15.00;9.55;;;;;;;12.64;86.87;101782.75;5035082;28;20025;-68
2022/10/13 04:38:48;;;;;;;15.55;8.88;;;;;;;12.66;86.84;101777.66;5038800;28;20128;-68
2022/10/13 04:41:15;;;;;;;25.15;10.40;;;;;;;12.65;86.72;101778.47;5039056;28;20075;-68
2022/10/13 04:43:42;;;;;;;21.27;9.70;;;;;;;12.56;87.35;101777.34;5034784;28;20029;-68
2022/10/13 04:46:12;;;;;;;21.13;10.13;;;;;;;12.63;87.25;101782.72;5032123;28;20095;-68
2022/10/13 04:48:37;;;;;;;18.75;9.57;;;;;;;12.62;86.88;101789.59;5037718;28;20032;-68
2022/10/13 04:51:15;;;;;;;17.65;9.23;;;;;;;12.67;86.72;101790.59;5036839;28;20037;-68
2022/10/13 04:53:41;;;;;;;19.80;9.27;;;;;;;12.64;87.09;101784.47;5035916;28;20056;-68
2022/10/13 04:56:09;;;;;;;17.77;9.52;;;;;;;12.64;87.07;101793.09;5014946;28;20377;-68
2022/10/13 04:58:36;;;;;;;20.25;9.25;;;;;;;12.64;86.94;101790.50;5036877;28;20033;-68
2022/10/13 05:01:04;;;;;;;15.70;8.63;;;;;;;12.59;87.28;101790.34;5038478;28;20059;-67
2022/10/13 05:03:29;;;;;;;18.60;9.40;;;;;;;12.61;86.91;101790.38;5013325;28;20021;-68
2022/10/13 05:05:55;;;;;;;17.20;9.55;;;;;;;12.64;87.08;101792.22;5035830;28;20510;-68
2022/10/13 05:08:20;;;;;;;13.95;8.95;;;;;;;12.63;86.99;101780.13;5035553;28;20061;-68
2022/10/13 05:10:57;;;;;;;16.67;9.43;;;;;;;12.66;86.75;101778.53;5035270;28;20053;-68
2022/10/13 05:13:23;;;;;;;14.23;9.50;;;;;;;12.63;86.94;101773.28;5040111;28;20029;-68
2022/10/13 05:15:49;;;;;;;18.48;9.55;;;;;;;12.60;87.13;101766.28;5027967;28;20129;-67
2022/10/13 05:18:15;;;;;;;18.73;9.63;;;;;;;12.63;87.12;101778.44;5032424;28;20113;-68
2022/10/13 05:20:40;;;;;;;18.25;9.57;;;;;;;12.62;86.95;101781.84;5043610;28;20115;-67
2022/10/13 05:23:05;;;;;;;15.82;9.65;;;;;;;12.58;87.33;101777.41;5040431;28;20079;-68
2022/10/13 05:25:33;;;;;;;25.15;10.27;;;;;;;12.60;87.28;101783.47;5033463;28;20041;-68
2022/10/13 05:27:58;;;;;;;20.40;9.50;;;;;;;12.54;87.24;101776.41;5030921;28;20017;-67
2022/10/13 05:30:24;;;;;;;18.90;9.68;;;;;;;12.54;87.50;101791.88;5037610;28;20044;-67
2022/10/13 05:32:49;;;;;;;15.82;9.93;;;;;;;12.60;87.35;101794.66;5032970;28;20029;-68
2022/10/13 05:35:14;;;;;;;18.50;9.60;;;;;;;12.57;87.37;101789.41;5031895;28;20077;-67
2022/10/13 05:37:40;;;;;;;17.15;9.32;;;;;;;12.54;87.17;101781.56;5034312;28;20483;-68
2022/10/13 05:40:06;;;;;;;14.98;9.32;;;;;;;12.57;87.48;101796.28;5033858;28;20052;-68
2022/10/13 05:42:34;;;;;;;20.70;10.35;;;;;;;12.57;87.47;101791.13;5031751;28;20040;-67
2022/10/13 05:45:00;;;;;;;18.60;9.67;;;;;;;12.55;87.42;101788.47;5035690;28;20029;-67
2022/10/13 05:47:27;;;;;;;19.05;9.82;;;;;;;12.58;87.49;101791.16;5034740;28;20039;-68
2022/10/13 05:49:53;;;;;;;16.08;10.32;;;;;;;12.59;87.37;101786.88;5035453;28;20037;-67
2022/10/13 05:52:20;;;;;;;18.00;10.35;;;;;;;12.57;87.26;101783.38;5039269;28;20499;-66
2022/10/13 05:54:48;;;;;;;17.67;10.30;;;;;;;12.59;87.06;101780.03;5038286;28;20756;-66
2022/10/13 05:57:36;;;;;;;16.50;10.52;;;;;;;12.64;87.05;101779.31;5037025;28;20505;-66
2022/10/13 06:00:07;;;;;;;15.98;9.32;;;;;;;12.61;87.55;101786.09;5039566;28;20551;-66
2022/10/13 06:02:50;;;;;;;22.30;10.52;;;;;;;12.59;87.40;101779.16;5038226;28;20063;-66
2022/10/13 06:05:18;;;;;;;15.68;10.05;;;;;;;12.59;87.26;101774.84;5031584;28;20059;-66
2022/10/13 06:07:45;;;;;;;22.45;10.27;;;;;;;12.58;87.74;101767.06;5034315;28;20029;-66
2022/10/13 06:10:11;;;;;;;19.42;10.20;;;;;;;12.57;87.71;101768.78;5037428;28;20041;-66
2022/10/13 06:12:37;;;;;;;22.77;10.10;;;;;;;12.57;88.05;101768.78;5043352;28;20398;-66
2022/10/13 06:15:03;;;;;;;20.60;10.18;;;;;;;12.58;87.84;101774.81;5042096;28;20060;-66
2022/10/13 06:17:29;;;;;;;20.63;10.32;;;;;;;12.58;88.26;101772.22;5037098;28;20091;-66
2022/10/13 06:19:54;;;;;;;24.90;11.48;;;;;;;12.60;87.46;101760.25;5035441;28;20640;-66
2022/10/13 06:22:20;;;;;;;27.13;10.30;;;;;;;12.60;87.65;101765.41;5039661;28;20687;-66
2022/10/13 06:24:46;;;;;;;22.88;10.70;;;;;;;12.58;87.99;101761.91;5018628;28;20594;-66
2022/10/13 06:27:12;;;;;;;18.15;10.13;;;;;;;12.60;87.64;101766.28;5043012;28;20103;-66
2022/10/13 06:29:37;;;;;;;20.33;10.15;;;;;;;12.61;87.86;101768.03;5039961;28;20025;-66
2022/10/13 06:32:03;;;;;;;24.38;10.93;;;;;;;12.61;87.58;101773.19;5047552;28;20461;-66
2022/10/13 06:34:28;;;;;;;20.17;11.13;;;;;;;12.60;88.05;101765.41;5011569;28;20064;-66
2022/10/13 06:36:54;;;;;;;21.00;10.45;;;;;;;12.65;87.49;101768.16;5041204;28;20119;-66
2022/10/13 06:39:19;;;;;;;22.63;11.35;;;;;;;12.63;87.26;101757.78;5035012;28;20124;-65
2022/10/13 06:41:45;;;;;;;20.95;11.45;;;;;;;12.61;87.59;101762.00;5037231;28;20133;-65
2022/10/13 06:44:10;;;;;;;21.42;10.75;;;;;;;12.63;87.58;101755.22;5018732;28;20742;-65
2022/10/13 06:46:36;;;;;;;21.33;10.98;;;;;;;12.64;87.83;101762.13;5017838;28;20037;-66
2022/10/13 06:49:01;;;;;;;22.15;11.07;;;;;;;12.64;87.78;101761.25;5035150;28;20108;-66
2022/10/13 06:51:27;;;;;;;20.17;11.02;;;;;;;12.67;88.08;101757.03;5031225;28;20553;-65
2022/10/13 06:53:55;;;;;;;17.38;11.05;;;;;;;12.69;88.05;101760.56;5019256;28;20079;-66
2022/10/13 06:56:20;;;;;;;21.88;10.93;;;;;;;12.68;87.56;101748.50;5042981;28;20039;-66
2022/10/13 06:58:47;;;;;;;19.83;10.98;;;;;;;12.66;88.19;101744.97;5024711;28;20041;-66
2022/10/13 07:01:12;;;;;;;22.13;11.20;;;;;;;12.70;87.88;101756.28;5040272;28;20037;-65
2022/10/13 07:03:38;;;;;;;18.77;10.77;;;;;;;12.70;88.06;101754.59;5045299;28;20041;-65
2022/10/13 07:06:05;;;;;;;19.10;11.43;;;;;;;12.73;88.07;101766.69;5040273;28;20032;-65
2022/10/13 07:08:32;;;;;;;18.42;11.20;;;;;;;12.68;88.22;101765.66;5012656;28;20045;-65
2022/10/13 07:10:57;;;;;;;21.58;11.43;;;;;;;12.68;88.26;101756.25;5044579;28;20929;-67
2022/10/13 07:13:23;;;;;;;19.30;11.27;;;;;;;12.71;87.63;101761.50;5030082;28;20660;-65
2022/10/13 07:15:48;;;;;;;19.55;10.77;;;;;;;12.71;88.17;101755.47;5044407;28;20796;-66
2022/10/13 07:18:13;;;;;;;20.60;10.98;;;;;;;12.72;88.46;101755.50;5042897;28;20033;-65
2022/10/13 07:20:39;;;;;;;21.92;11.13;;;;;;;12.75;88.29;101765.06;5025147;28;20051;-66
2022/10/13 07:23:04;;;;;;;19.10;11.13;;;;;;;12.75;88.20;101759.91;5020396;28;20394;-65
2022/10/13 07:25:30;;;;;;;19.15;10.63;;;;;;;12.77;88.33;101764.28;5029203;28;20029;-66
2022/10/13 07:27:57;;;;;;;20.60;11.10;;;;;;;12.78;87.88;101768.63;5045965;28;20064;-66
2022/10/13 07:30:23;;;;;;;20.30;10.93;;;;;;;12.76;88.33;101762.53;5042850;28;20037;-66
2022/10/13 07:32:49;;;;;;;22.23;11.70;;;;;;;12.77;87.66;101766.88;5048881;28;20057;-66
2022/10/13 07:35:14;;;;;;;24.13;11.70;;;;;;;12.80;88.32;101769.56;5038424;28;20413;-66
2022/10/13 07:37:40;;;;;;;22.60;11.25;;;;;;;12.82;88.62;101773.06;5047496;28;20028;-66
2022/10/13 07:40:06;;;;;;;22.77;11.18;;;;;;;12.78;88.77;101771.19;5042652;28;20041;-66
2022/10/13 07:42:32;;;;;;;19.98;11.65;;;;;;;12.79;88.11;101767.78;5039968;28;20021;-66
2022/10/13 07:44:57;;;;;;;24.60;11.20;;;;;;;12.83;88.68;101769.66;5041065;28;20435;-66
2022/10/13 07:47:23;;;;;;;19.65;11.65;;;;;;;12.84;88.22;101762.78;5040848;28;20037;-65
2022/10/13 07:49:48;;;;;;;24.42;11.18;;;;;;;12.86;87.88;101764.59;5042202;28;20055;-67
2022/10/13 07:52:13;;;;;;;23.83;11.93;;;;;;;12.86;88.31;101764.59;5042147;28;20028;-66
2022/10/13 07:54:39;;;;;;;30.52;11.60;;;;;;;12.88;88.02;101762.94;5033431;28;20052;-66
2022/10/13 07:57:04;;;;;;;22.63;11.88;;;;;;;12.88;88.23;101762.06;5040990;28;20039;-66
2022/10/13 07:59:33;;;;;;;19.30;11.13;;;;;;;12.91;88.33;101764.72;5056759;28;20433;-66
2022/10/13 08:01:59;;;;;;;22.10;11.85;;;;;;;12.93;88.20;101764.81;5051474;28;20065;-66
2022/10/13 08:04:29;;;;;;;23.08;10.77;;;;;;;12.93;88.26;101765.69;5058522;28;20032;-66
2022/10/13 08:06:55;;;;;;;23.42;11.88;;;;;;;12.95;88.44;101770.88;5056279;28;20612;-66
2022/10/13 08:09:20;;;;;;;21.70;11.90;;;;;;;12.98;88.17;101768.38;5064072;28;20058;-66
2022/10/13 08:11:45;;;;;;;20.63;11.52;;;;;;;13.00;87.92;101767.63;5051455;28;20468;-66
2022/10/13 08:14:12;;;;;;;21.17;11.25;;;;;;;13.01;87.95;101758.19;5055824;28;20028;-66
2022/10/13 08:16:39;;;;;;;20.88;12.15;;;;;;;13.03;87.81;101766.84;5063822;28;20052;-65
2022/10/13 08:19:05;;;;;;;18.85;11.85;;;;;;;13.06;87.65;101761.78;5065838;28;20071;-66
2022/10/13 08:21:30;;;;;;;24.33;11.10;;;;;;;13.06;87.43;101752.34;5057921;28;20116;-66
2022/10/13 08:23:55;;;;;;;25.40;10.95;;;;;;;13.08;87.94;101750.66;5052078;28;20033;-66
2022/10/13 08:26:23;;;;;;;18.08;11.55;;;;;;;13.12;88.50;101749.94;5028850;28;20060;-65
2022/10/13 08:28:49;;;;;;;23.45;12.32;;;;;;;13.13;87.81;101748.25;5026673;28;20023;-66
2022/10/13 08:31:15;;;;;;;20.63;12.13;;;;;;;13.15;87.26;101752.59;5049550;28;20112;-66
2022/10/13 08:33:40;;;;;;;19.05;11.70;;;;;;;13.18;86.96;101743.22;5037124;28;20108;-65
2022/10/13 08:36:07;;;;;;;20.13;10.82;;;;;;;13.20;87.09;101751.88;5047521;28;20131;-66
2022/10/13 08:38:32;;;;;;;19.90;11.73;;;;;;;13.22;87.32;101748.53;5045153;28;20028;-66
2022/10/13 08:40:58;;;;;;;21.00;11.90;;;;;;;13.24;87.15;101744.31;5049071;28;20033;-66
2022/10/13 08:43:25;;;;;;;23.65;11.65;;;;;;;13.26;86.83;101744.38;5040647;28;20041;-66
2022/10/13 08:45:55;;;;;;;19.92;12.45;;;;;;;13.29;87.14;101747.94;5053669;28;20040;-66
2022/10/13 08:48:24;;;;;;;24.20;12.75;;;;;;;13.29;86.50;101735.03;5049732;28;20032;-66
2022/10/13 08:50:55;;;;;;;22.27;11.63;;;;;;;13.34;86.67;101746.34;5038082;28;20040;-66
2022/10/13 08:53:33;;;;;;;22.65;12.77;;;;;;;13.36;86.72;101741.25;5046260;28;20029;-66
2022/10/13 08:56:26;;;;;;;21.90;12.10;;;;;;;13.42;86.64;101751.78;5050996;28;20029;-66
2022/10/13 08:58:53;;;;;;;17.98;11.38;;;;;;;13.39;86.66;101749.94;5046751;28;20493;-66
2022/10/13 09:01:31;;;;;;;20.55;12.35;;;;;;;13.46;86.52;101750.13;5047811;28;20052;-66
2022/10/13 09:04:02;;;;;;;23.92;11.73;;;;;;;13.47;86.81;101746.72;5050991;28;20103;-66
2022/10/13 09:06:34;;;;;;;23.25;11.48;;;;;;;13.48;86.94;101743.31;5042793;28;20031;-66
2022/10/13 09:09:03;;;;;;;20.67;11.68;;;;;;;13.47;86.67;101745.03;5046810;28;20041;-66
2022/10/13 09:11:32;;;;;;;21.80;12.00;;;;;;;13.50;86.78;101742.53;5048279;28;20018;-66
2022/10/13 09:14:02;;;;;;;19.90;11.43;;;;;;;13.50;86.92;101742.53;5050092;28;20036;-66
2022/10/13 09:16:40;;;;;;;21.95;11.77;;;;;;;13.50;86.45;101733.91;5047487;28;20025;-66
2022/10/13 09:19:26;;;;;;;23.85;11.25;;;;;;;13.54;86.31;101741.81;5036149;28;20063;-66
2022/10/13 09:21:55;;;;;;;21.92;11.90;;;;;;;13.51;86.33;101740.81;5053149;28;20026;-66
2022/10/13 09:24:22;;;;;;;24.55;11.73;;;;;;;13.48;86.37;101739.03;5056939;28;20048;-66
2022/10/13 09:26:51;;;;;;;22.13;10.95;;;;;;;13.49;86.84;101735.63;5040042;28;20025;-66
2022/10/13 09:29:23;;;;;;;;;;;;;;;13.62;85.86;101734.28;5055217;28;20025;-66
2022/10/13 09:31:49;;;;;;;20.25;11.90;;;;;;;13.53;86.51;101744.31;5048918;28;20364;-66
2022/10/13 09:34:24;;;;;;;21.13;12.63;;;;;;;13.53;86.42;101739.16;5052041;28;20037;-66
2022/10/13 09:37:02;;;;;;;22.90;11.77;;;;;;;13.56;86.61;101739.25;5059836;28;20020;-66
2022/10/13 09:39:29;;;;;;;25.00;11.90;;;;;;;13.56;86.51;101737.53;5044297;28;20025;-65
2022/10/13 09:42:16;;;;;;;22.10;11.63;;;;;;;13.61;86.47;101737.69;5054800;28;20566;-66
2022/10/13 09:44:42;;;;;;;25.75;12.57;;;;;;;13.59;86.43;101735.06;5045798;28;20044;-66
2022/10/13 09:47:19;;;;;;;22.83;12.55;;;;;;;13.61;86.12;101720.47;5051606;28;20029;-66
2022/10/13 09:49:45;;;;;;;20.92;11.50;;;;;;;13.62;86.24;101721.34;5056212;28;20078;-66
2022/10/13 09:52:20;;;;;;;24.42;12.10;;;;;;;13.66;86.39;101726.66;5051508;28;20070;-66
2022/10/13 09:54:50;;;;;;;20.30;11.65;;;;;;;13.66;86.79;101723.19;5044256;28;20033;-66
2022/10/13 09:57:28;;;;;;;21.35;11.13;;;;;;;13.66;86.32;101728.38;5038756;28;20115;-66
2022/10/13 09:59:56;;;;;;;22.88;11.65;;;;;;;13.67;86.32;101730.13;5055406;28;20037;-66
2022/10/13 10:02:34;;;;;;;22.20;11.63;;;;;;;13.69;86.09;101733.63;5060434;28;20052;-66
2022/10/13 10:05:26;;;;;;;19.15;10.95;;;;;;;13.69;85.93;101725.84;5051608;28;20040;-65
2022/10/13 10:07:51;;;;;;;21.35;11.35;;;;;;;13.64;85.62;101719.66;5026940;28;20020;-66
2022/10/13 10:10:29;;;;;;;21.10;11.80;;;;;;;13.66;85.82;101718.03;5048073;28;20028;-66
2022/10/13 10:12:54;;;;;;;20.95;11.48;;;;;;;13.65;86.27;101713.66;5029232;28;20058;-65
2022/10/13 10:15:25;;;;;;;20.60;11.82;;;;;;;13.65;86.71;101724.00;5047219;28;20024;-66
2022/10/13 10:17:57;;;;;;;21.85;11.25;;;;;;;13.66;86.59;101710.28;5041191;28;20028;-66
2022/10/13 10:20:41;;;;;;;19.23;11.13;;;;;;;13.69;86.96;101716.41;5048262;28;20525;-66
2022/10/13 10:23:26;;;;;;;20.05;12.10;;;;;;;13.71;87.80;101712.97;5048087;28;20039;-66
2022/10/13 10:25:56;;;;;;;21.58;12.95;;;;;;;13.72;88.33;101715.63;5051922;28;20107;-66
2022/10/13 10:28:59;;;;;;;25.13;12.93;;;;;;;13.74;88.74;101713.06;5047849;28;20044;-65
2022/10/13 10:31:36;;;;;;;18.40;11.52;;;;;;;13.69;88.84;101718.97;5048833;28;20036;-66
2022/10/13 10:34:19;;;;;;;20.08;12.10;;;;;;;13.66;88.58;101711.16;5038234;28;20450;-66
2022/10/13 10:37:13;;;;;;;23.60;12.45;;;;;;;13.69;88.32;101718.09;5056009;28;20032;-66
2022/10/13 10:39:50;;;;;;;24.63;12.75;;;;;;;13.67;89.34;101712.03;5045253;28;20123;-66
2022/10/13 10:42:43;;;;;;;20.85;12.43;;;;;;;13.71;88.78;101712.97;5046829;28;20468;-66
2022/10/13 10:45:20;;;;;;;24.20;12.95;;;;;;;13.68;89.45;101700.84;5048523;28;20025;-65
2022/10/13 10:47:50;;;;;;;24.85;13.20;;;;;;;13.66;89.74;101703.41;5057034;28;20487;-66
2022/10/13 10:50:17;;;;;;;24.80;14.50;;;;;;;13.65;90.21;101709.41;5052817;28;20032;-66
2022/10/13 10:52:52;;;;;;;22.42;13.13;;;;;;;13.70;90.43;101712.09;5061979;28;20079;-66
2022/10/13 10:55:27;;;;;;;22.77;14.02;;;;;;;13.73;90.54;101713.91;5051096;28;20067;-66
2022/10/13 10:58:02;;;;;;;23.05;14.63;;;;;;;13.71;90.92;101711.28;5055809;28;20541;-66
2022/10/13 11:00:27;;;;;;;27.33;15.63;;;;;;;13.69;90.97;101705.19;5043852;28;20025;-65
2022/10/13 11:02:58;;;;;;;25.75;14.55;;;;;;;13.74;91.42;101705.31;5049222;28;20369;-65
2022/10/13 11:05:24;;;;;;;25.63;16.58;;;;;;;13.66;91.83;101695.66;5041451;28;20090;-66
2022/10/13 11:07:49;;;;;;;30.65;15.18;;;;;;;13.72;91.45;101704.41;5055945;28;20123;-66
2022/10/13 11:10:17;;;;;;;25.25;15.35;;;;;;;13.73;91.01;101695.81;5048164;28;20032;-65
2022/10/13 11:13:05;;;;;;;22.80;15.40;;;;;;;13.75;91.31;101692.44;5024402;28;20029;-65
2022/10/13 11:15:42;;;;;;;26.38;15.50;;;;;;;13.77;91.02;101688.19;5043880;28;20152;-64
2022/10/13 11:18:45;;;;;;;29.63;15.07;;;;;;;13.78;90.47;101679.59;5050827;28;20028;-65
2022/10/13 11:21:10;;;;;;;23.77;15.02;;;;;;;13.75;90.26;101684.69;5030845;28;20392;-65
2022/10/13 11:23:43;;;;;;;29.42;15.45;;;;;;;13.76;91.66;101678.66;5049160;28;20028;-65